createdAt,value
2019-02-11T00:01:15.645Z,6.10
2019-02-11T00:08:00.487Z,6.00
2019-02-11T00:14:45.411Z,6.00
2019-02-11T00:21:30.362Z,5.90
2019-02-11T00:28:15.350Z,5.80
2019-02-11T00:35:00.271Z,5.80
2019-02-11T00:41:45.199Z,5.90
2019-02-11T00:48:30.047Z,5.70
2019-02-11T00:55:15.157Z,5.50
2019-02-11T01:02:00.371Z,5.40
2019-02-11T01:08:45.731Z,5.30
2019-02-11T01:15:30.957Z,5.20
2019-02-11T01:22:16.460Z,5.40
2019-02-11T01:29:01.673Z,5.40
2019-02-11T01:35:46.762Z,5.40
2019-02-11T01:42:31.883Z,5.30
2019-02-11T01:49:16.967Z,5.40
2019-02-11T01:56:02.336Z,5.50
2019-02-11T02:02:47.794Z,5.40
2019-02-11T02:09:33.012Z,5.40
2019-02-11T02:16:17.957Z,5.50
2019-02-11T02:23:02.803Z,5.50
2019-02-11T02:29:47.655Z,5.60
2019-02-11T02:36:32.514Z,5.70
2019-02-11T02:43:17.364Z,5.70
2019-02-11T02:50:03.246Z,5.80
2019-02-11T02:56:48.182Z,5.90
2019-02-11T03:03:33.018Z,5.90
2019-02-11T03:10:17.868Z,5.80
2019-02-11T03:17:02.791Z,5.60
2019-02-11T03:23:47.715Z,5.40
2019-02-11T03:30:32.674Z,5.40
2019-02-11T03:37:17.598Z,5.10
2019-02-11T03:44:02.670Z,4.90
2019-02-11T03:50:47.587Z,4.80
2019-02-11T03:57:32.575Z,4.70
2019-02-11T04:04:17.423Z,4.50
2019-02-11T04:11:02.348Z,4.40
2019-02-11T04:17:47.291Z,4.30
2019-02-11T04:24:32.219Z,4.30
2019-02-11T04:31:17.070Z,4.40
2019-02-11T04:38:02.182Z,4.30
2019-02-11T04:44:47.043Z,4.40
2019-02-11T04:51:31.967Z,4.60
2019-02-11T04:58:16.899Z,4.60
2019-02-11T05:05:01.842Z,4.60
2019-02-11T05:11:46.804Z,4.60
2019-02-11T05:18:31.656Z,4.50
2019-02-11T05:25:16.514Z,4.50
2019-02-11T05:32:01.379Z,4.30
2019-02-11T05:38:46.294Z,4.20
2019-02-11T05:45:31.203Z,4.30
2019-02-11T05:52:16.607Z,4.30
2019-02-11T05:59:01.470Z,4.40
2019-02-11T06:05:47.279Z,4.50
2019-02-11T06:12:32.204Z,4.70
2019-02-11T06:19:17.139Z,4.80
2019-02-11T06:26:02.162Z,4.70
2019-02-11T06:32:47.087Z,4.70
2019-02-11T06:39:31.940Z,4.80
2019-02-11T06:46:16.803Z,4.90
2019-02-11T06:53:01.670Z,4.90
2019-02-11T06:59:46.719Z,4.90
2019-02-11T07:06:31.927Z,4.90
2019-02-11T07:13:16.895Z,4.90
2019-02-11T07:20:01.849Z,4.80
2019-02-11T07:26:46.799Z,4.80
2019-02-11T07:33:33.421Z,4.80
2019-02-11T07:40:18.278Z,5.00
2019-02-11T07:47:03.230Z,5.10
2019-02-11T07:53:48.254Z,5.10
2019-02-11T08:00:33.137Z,5.20
2019-02-11T08:07:18.087Z,5.30
2019-02-11T08:14:03.126Z,5.40
2019-02-11T08:20:47.992Z,5.50
2019-02-11T08:27:32.855Z,5.60
2019-02-11T08:34:17.767Z,5.60
2019-02-11T08:41:02.619Z,5.70
2019-02-11T08:47:47.478Z,6.00
2019-02-11T08:54:32.399Z,6.20
2019-02-11T09:01:17.343Z,6.30
2019-02-11T09:08:03.166Z,6.30
2019-02-11T09:14:48.151Z,6.40
2019-02-11T09:21:33.857Z,6.60
2019-02-11T09:28:19.191Z,6.50
2019-02-11T09:35:05.051Z,6.60
2019-02-11T09:41:49.992Z,6.40
2019-02-11T09:48:35.035Z,6.50
2019-02-11T09:55:24.946Z,6.80
2019-02-11T10:02:11.099Z,7.00
2019-02-11T10:08:55.942Z,7.30
2019-02-11T10:15:40.811Z,7.60
2019-02-11T10:22:25.655Z,7.80
2019-02-11T10:29:10.538Z,8.00
2019-02-11T10:35:55.483Z,8.60
2019-02-11T10:42:40.327Z,9.30
2019-02-11T10:49:25.346Z,9.00
2019-02-11T10:56:10.292Z,8.40
2019-02-11T11:02:55.348Z,8.60
2019-02-11T11:09:40.960Z,8.70
2019-02-11T11:16:29.728Z,8.90
2019-02-11T11:23:12.587Z,8.30
2019-02-11T11:29:57.774Z,8.20
2019-02-11T11:36:42.618Z,8.00
2019-02-11T11:43:27.474Z,8.30
2019-02-11T11:50:13.189Z,8.90
2019-02-11T11:56:59.442Z,8.90
2019-02-11T12:03:44.426Z,8.40
2019-02-11T12:10:29.419Z,8.10
2019-02-11T12:17:14.271Z,8.20
2019-02-11T12:23:59.190Z,7.90
2019-02-11T12:30:44.316Z,7.90
2019-02-11T12:37:29.281Z,7.90
2019-02-11T12:44:14.325Z,8.00
2019-02-11T12:50:59.249Z,8.10
2019-02-11T12:57:44.277Z,8.20
2019-02-11T13:04:29.172Z,8.40
2019-02-11T13:11:14.191Z,8.50
2019-02-11T13:17:59.314Z,8.80
2019-02-11T13:24:44.263Z,8.80
2019-02-11T13:31:29.196Z,8.10
2019-02-11T13:38:14.162Z,8.10
2019-02-11T13:44:59.086Z,9.00
2019-02-11T13:51:44.378Z,9.60
2019-02-11T13:58:29.454Z,9.50
2019-02-11T14:05:14.632Z,9.10
2019-02-11T14:11:59.887Z,9.30
2019-02-11T14:18:44.791Z,9.20
2019-02-11T14:25:42.000Z,9.00
2019-02-11T14:32:19.158Z,8.90
2019-02-11T14:39:07.359Z,8.60
2019-02-11T14:45:52.371Z,8.50
2019-02-11T14:52:37.355Z,8.60
2019-02-11T14:59:22.447Z,8.60
2019-02-11T15:06:07.512Z,8.40
2019-02-11T15:12:52.628Z,8.10
2019-02-11T15:19:37.556Z,8.10
2019-02-11T15:26:22.536Z,8.10
2019-02-11T15:33:07.474Z,7.90
2019-02-11T15:39:52.435Z,7.80
2019-02-11T15:46:37.364Z,7.80
2019-02-11T15:53:22.419Z,8.00
2019-02-11T16:00:10.602Z,8.00
2019-02-11T16:06:55.478Z,7.60
2019-02-11T16:13:40.336Z,7.30
2019-02-11T16:20:25.254Z,7.10
2019-02-11T16:27:10.223Z,7.10
2019-02-11T16:33:55.134Z,7.00
2019-02-11T16:40:40.099Z,6.70
2019-02-11T16:47:25.028Z,6.50
2019-02-11T16:54:10.174Z,6.40
2019-02-11T17:00:55.099Z,6.40
2019-02-11T17:07:41.967Z,6.20
2019-02-11T17:14:27.790Z,6.20
2019-02-11T17:21:12.877Z,6.10
2019-02-11T17:27:58.006Z,6.10
2019-02-11T17:34:44.089Z,6.10
2019-02-11T17:41:28.983Z,6.10
2019-02-11T17:48:13.888Z,6.10
2019-02-11T17:54:58.746Z,5.90
2019-02-11T18:01:43.834Z,5.60
2019-02-11T18:08:28.765Z,5.40
2019-02-11T18:15:14.134Z,5.50
2019-02-11T18:21:59.015Z,5.80
2019-02-11T18:28:44.226Z,5.90
2019-02-11T18:35:29.252Z,6.00
2019-02-11T18:42:14.276Z,6.00
2019-02-11T18:48:59.238Z,6.10
2019-02-11T18:55:44.587Z,6.10
2019-02-11T19:02:30.118Z,6.10
2019-02-11T19:09:15.894Z,6.10
2019-02-11T19:16:00.927Z,6.00
2019-02-11T19:22:46.183Z,6.10
2019-02-11T19:29:31.910Z,6.20
2019-02-11T19:36:16.881Z,6.10
2019-02-11T19:43:01.919Z,6.10
2019-02-11T19:49:51.702Z,6.10
2019-02-11T19:56:33.725Z,6.10
2019-02-11T20:03:19.607Z,6.00
2019-02-11T20:10:07.267Z,6.00
2019-02-11T20:16:52.199Z,6.00
2019-02-11T20:23:37.508Z,6.00
2019-02-11T20:30:25.196Z,5.90
2019-02-11T20:37:10.186Z,5.70
2019-02-11T20:43:55.155Z,5.50
2019-02-11T20:50:40.120Z,5.20
2019-02-11T20:57:25.054Z,4.80
2019-02-11T21:04:09.982Z,4.50
2019-02-11T21:10:54.918Z,4.20
2019-02-11T21:17:39.764Z,4.00
2019-02-11T21:24:24.619Z,3.90
2019-02-11T21:31:09.659Z,3.70
2019-02-11T21:37:55.479Z,3.80
2019-02-11T21:44:41.561Z,3.60
2019-02-11T21:51:26.993Z,3.30
2019-02-11T21:58:11.839Z,3.30
2019-02-11T22:04:56.855Z,3.20
2019-02-11T22:11:41.783Z,3.10
2019-02-11T22:18:26.818Z,3.10
2019-02-11T22:25:12.809Z,3.10
2019-02-11T22:31:57.751Z,3.00
2019-02-11T22:38:42.601Z,2.90
2019-02-11T22:45:28.496Z,2.60
2019-02-11T22:52:14.322Z,2.50
2019-02-11T22:58:59.234Z,2.50
2019-02-11T23:05:44.170Z,2.60
2019-02-11T23:12:29.311Z,2.40
2019-02-11T23:19:14.888Z,2.20
2019-02-11T23:26:00.351Z,2.30
2019-02-11T23:32:45.897Z,2.10
2019-02-11T23:39:31.523Z,2.00
2019-02-11T23:46:17.044Z,1.90
2019-02-11T23:53:03.579Z,1.90
2019-02-11T23:59:49.081Z,1.90
